Time;durP1;ratioP1;P1;durP2;ratioP2;P2;SDS_P1;SDS_P2;PMS_P1;PMS_P2;Temp;Humidity;BMP_temperature;BMP_pressure;BME280_temperature;BME280_humidity;BME280_pressure;Samples;Min_cycle;Max_cycle;Signal;HPM_P1;HPM_P2
2022/01/10 00:01:19;;;;;;;0.10;0.10;;;2.70;99.90;230.40;228845.00;;;;5071680;28;20250;-74
2022/01/10 00:03:52;;;;;;;0.10;0.10;;;2.70;99.90;230.40;228845.00;;;;5072523;28;20276;-73
2022/01/10 00:06:20;;;;;;;0.10;0.10;;;2.70;99.90;230.40;228845.00;;;;5071663;28;20198;-75
2022/01/10 00:08:48;;;;;;;0.10;0.10;;;2.70;99.90;230.40;228845.00;;;;5068056;28;20645;-74
2022/01/10 00:11:18;;;;;;;0.03;0.03;;;2.70;99.90;230.40;228845.00;;;;5068770;28;20269;-73
2022/01/10 00:13:46;;;;;;;0.10;0.10;;;2.70;99.90;230.40;228845.00;;;;5073925;28;20241;-75
2022/01/10 00:16:13;;;;;;;0.10;0.10;;;2.70;99.90;230.40;228845.00;;;;5071659;28;20239;-75
2022/01/10 00:18:41;;;;;;;0.10;0.10;;;2.60;99.90;230.40;228845.00;;;;5070189;28;20264;-75
2022/01/10 00:21:09;;;;;;;0.10;0.10;;;2.60;99.90;230.40;228845.00;;;;5070862;28;20194;-75
2022/01/10 00:23:37;;;;;;;0.10;0.10;;;2.60;99.90;230.40;228845.00;;;;5071470;28;20209;-73
2022/01/10 00:26:06;;;;;;;0.10;0.10;;;2.60;99.90;230.40;228845.00;;;;5060935;28;20289;-73
2022/01/10 00:28:35;;;;;;;0.10;0.10;;;2.60;99.90;230.40;228845.00;;;;5067741;28;20221;-74
2022/01/10 00:31:03;;;;;;;0.10;0.10;;;2.60;99.90;230.40;228845.00;;;;5061493;28;20259;-74
2022/01/10 00:33:31;;;;;;;0.10;0.10;;;2.60;99.90;230.40;228845.00;;;;5070970;28;20193;-76
2022/01/10 00:35:59;;;;;;;0.10;0.10;;;2.60;99.90;230.40;228845.00;;;;5069835;28;20202;-74
2022/01/10 00:38:27;;;;;;;0.03;0.03;;;2.60;99.90;230.40;228845.00;;;;5071213;28;20213;-74
2022/01/10 00:40:55;;;;;;;0.10;0.10;;;2.60;99.90;230.40;228845.00;;;;5070057;28;20198;-74
2022/01/10 00:43:31;;;;;;;0.10;0.10;;;2.60;99.90;230.40;228845.00;;;;5069304;28;20223;-75
2022/01/10 00:46:04;;;;;;;0.10;0.10;;;2.70;99.90;230.40;228845.00;;;;5069544;28;20190;-75
2022/01/10 00:48:32;;;;;;;0.10;0.10;;;2.60;99.90;230.40;228845.00;;;;5070517;28;20223;-75
2022/01/10 00:51:00;;;;;;;0.10;0.10;;;2.70;99.90;230.40;228845.00;;;;5069982;28;20197;-74
2022/01/10 00:53:28;;;;;;;0.10;0.10;;;2.70;99.90;230.40;228845.00;;;;5070175;28;20197;-74
2022/01/10 00:55:56;;;;;;;0.10;0.10;;;2.70;99.90;230.40;228845.00;;;;5070664;28;20213;-74
2022/01/10 00:58:25;;;;;;;0.10;0.10;;;2.70;99.90;230.40;228845.00;;;;5068802;28;20573;-74
2022/01/10 01:00:53;;;;;;;0.10;0.10;;;2.70;99.90;230.40;228845.00;;;;5069651;28;20220;-74
2022/01/10 01:03:23;;;;;;;0.10;0.10;;;2.70;99.90;230.40;228845.00;;;;5059707;28;20296;-74
2022/01/10 01:05:51;;;;;;;0.10;0.10;;;2.70;99.90;230.40;228845.00;;;;5069132;28;20194;-74
2022/01/10 01:08:19;;;;;;;0.10;0.10;;;2.70;99.90;230.40;228845.00;;;;5069463;28;20233;-74
2022/01/10 01:13:49;;;;;;;0.10;0.10;;;2.70;99.90;230.40;228845.00;;;;5063474;28;20286;-73
2022/01/10 01:16:30;;;;;;;0.10;0.10;;;2.70;99.90;230.40;228845.00;;;;5060797;28;20217;-74
2022/01/10 01:24:21;;;;;;;0.10;0.10;;;2.90;99.90;230.40;228845.00;;;;5068666;28;20197;-74
2022/01/10 01:26:52;;;;;;;0.10;0.10;;;3.00;99.90;230.40;228845.00;;;;5076345;28;20193;-74
2022/01/10 01:29:25;;;;;;;0.10;0.10;;;3.00;99.90;230.40;228845.00;;;;5069816;28;20277;-74
2022/01/10 01:31:54;;;;;;;0.10;0.10;;;2.90;99.90;230.40;228845.00;;;;5079916;28;20668;-73
2022/01/10 01:34:25;;;;;;;0.10;0.10;;;2.90;99.90;230.40;228845.00;;;;5074071;28;20225;-74
2022/01/10 01:36:56;;;;;;;0.10;0.10;;;3.00;99.90;230.40;228845.00;;;;5072818;28;20208;-75
2022/01/10 01:39:29;;;;;;;0.10;0.10;;;3.10;99.90;230.40;228845.00;;;;5069799;28;20798;-75
2022/01/10 01:42:06;;;;;;;0.10;0.10;;;3.10;99.90;230.40;228845.00;;;;5060247;28;20204;-75
2022/01/10 01:44:35;;;;;;;0.10;0.10;;;3.10;99.90;230.40;228845.00;;;;5059056;28;20296;-74
2022/01/10 01:47:05;;;;;;;0.10;0.10;;;3.10;99.90;230.40;228845.00;;;;5060467;28;20201;-74
2022/01/10 01:49:34;;;;;;;0.10;0.10;;;3.10;99.90;230.40;228845.00;;;;5067808;28;20722;-73
2022/01/10 01:52:03;;;;;;;0.10;0.10;;;3.20;99.90;230.40;228845.00;;;;5061427;28;20189;-73
2022/01/10 01:54:32;;;;;;;0.10;0.10;;;3.10;99.90;230.40;228845.00;;;;5061046;28;20228;-73
2022/01/10 01:57:01;;;;;;;0.10;0.10;;;3.10;99.90;230.40;228845.00;;;;5071361;28;20185;-74
2022/01/10 01:59:29;;;;;;;0.10;0.10;;;3.10;99.90;230.40;228845.00;;;;5065869;28;20217;-75
2022/01/10 02:01:57;;;;;;;0.10;0.10;;;3.10;99.90;230.40;228845.00;;;;5057463;28;20198;-74
2022/01/10 02:04:25;;;;;;;0.10;0.10;;;3.20;99.90;230.40;228845.00;;;;5069985;28;20190;-74
2022/01/10 02:06:58;;;;;;;0.10;0.10;;;3.10;99.90;230.40;228845.00;;;;5061930;28;20284;-74
2022/01/10 02:09:27;;;;;;;0.10;0.10;;;3.10;99.90;230.40;228845.00;;;;5089015;23;20666;-73
2022/01/10 02:11:57;;;;;;;0.10;0.10;;;3.10;99.90;230.40;228845.00;;;;5084228;28;20194;-72
2022/01/10 02:14:25;;;;;;;0.10;0.10;;;3.00;99.90;230.40;228845.00;;;;5067387;28;20212;-73
2022/01/10 02:16:55;;;;;;;0.10;0.10;;;3.00;99.90;230.40;228845.00;;;;5084025;28;20588;-72
2022/01/10 02:19:32;;;;;;;0.10;0.10;;;2.90;99.90;230.40;228845.00;;;;5071537;28;20309;-72
2022/01/10 02:22:01;;;;;;;0.10;0.10;;;2.90;99.90;230.40;228845.00;;;;5030411;28;20202;-72
2022/01/10 02:24:39;;;;;;;0.10;0.10;;;2.90;99.90;230.40;228845.00;;;;5036734;28;20198;-73
2022/01/10 02:27:09;;;;;;;0.10;0.10;;;2.80;99.90;230.40;228845.00;;;;5035591;28;20616;-73
2022/01/10 02:29:36;;;;;;;0.10;0.10;;;2.90;99.90;230.40;228845.00;;;;5035889;28;20210;-73
2022/01/10 02:32:05;;;;;;;0.10;0.10;;;2.90;99.90;230.40;228845.00;;;;5054070;28;20194;-73
2022/01/10 02:34:34;;;;;;;0.10;0.10;;;2.90;99.90;230.40;228845.00;;;;5054361;28;20193;-73
2022/01/10 02:37:04;;;;;;;0.10;0.10;;;2.90;99.90;230.40;228845.00;;;;5070469;28;20201;-74
2022/01/10 02:39:36;;;;;;;0.10;0.10;;;2.90;99.90;230.40;228845.00;;;;5071335;28;20576;-73
2022/01/10 02:42:05;;;;;;;0.10;0.10;;;2.90;99.90;230.40;228845.00;;;;5037509;28;20283;-73
2022/01/10 02:44:32;;;;;;;0.10;0.10;;;2.80;99.90;230.40;228845.00;;;;5056621;28;20256;-73
2022/01/10 02:47:00;;;;;;;0.10;0.10;;;2.90;99.90;230.40;228845.00;;;;5037420;28;20202;-73
2022/01/10 02:49:34;;;;;;;0.10;0.10;;;3.00;99.90;230.40;228845.00;;;;5040692;28;20697;-73
2022/01/10 02:52:04;;;;;;;0.10;0.10;;;3.00;99.90;230.40;228845.00;;;;5060664;28;20228;-74
2022/01/10 02:54:33;;;;;;;0.10;0.10;;;2.90;99.90;230.40;228845.00;;;;5040341;28;20199;-73
2022/01/10 02:57:09;;;;;;;0.10;0.10;;;2.90;99.90;230.40;228845.00;;;;5035531;28;20704;-74
2022/01/10 02:59:39;;;;;;;0.10;0.10;;;2.90;99.90;230.40;228845.00;;;;5051722;28;20206;-74
2022/01/10 03:02:09;;;;;;;0.10;0.10;;;2.90;99.90;230.40;228845.00;;;;5035231;28;20226;-75
2022/01/10 03:04:38;;;;;;;0.10;0.10;;;2.90;99.90;230.40;228845.00;;;;5034423;28;20202;-74
2022/01/10 03:07:07;;;;;;;0.10;0.10;;;2.90;99.90;230.40;228845.00;;;;5034888;28;20205;-73
2022/01/10 03:09:36;;;;;;;0.10;0.10;;;3.00;99.90;230.40;228845.00;;;;5042668;28;20218;-73
2022/01/10 03:12:09;;;;;;;0.10;0.10;;;3.00;99.90;230.40;228845.00;;;;5045361;28;20199;-73
2022/01/10 03:14:38;;;;;;;0.10;0.10;;;3.00;99.90;230.40;228845.00;;;;5042929;28;20293;-72
2022/01/10 03:17:08;;;;;;;0.10;0.10;;;3.10;99.90;230.40;228845.00;;;;5043022;28;20214;-73
2022/01/10 03:19:36;;;;;;;0.10;0.10;;;3.20;99.90;230.40;228845.00;;;;5041548;28;20281;-73
2022/01/10 03:22:05;;;;;;;0.10;0.10;;;3.10;99.90;230.40;228845.00;;;;5042835;28;20198;-74
2022/01/10 03:24:36;;;;;;;0.10;0.10;;;3.20;99.90;230.40;228845.00;;;;5040986;28;20598;-74
2022/01/10 03:27:05;;;;;;;0.10;0.10;;;3.20;99.90;230.40;228845.00;;;;5059711;28;20224;-73
2022/01/10 03:29:33;;;;;;;0.10;0.10;;;3.20;99.90;230.40;228845.00;;;;5056724;28;20214;-73
2022/01/10 03:32:02;;;;;;;0.10;0.10;;;3.20;99.90;230.40;228845.00;;;;5036055;28;20190;-73
2022/01/10 03:34:30;;;;;;;0.10;0.10;;;3.30;99.90;230.40;228845.00;;;;5070549;28;20213;-73
2022/01/10 03:36:58;;;;;;;0.10;0.10;;;3.20;99.90;230.40;228845.00;;;;5038347;28;20221;-73
2022/01/10 03:39:26;;;;;;;0.10;0.10;;;3.20;99.90;230.40;228845.00;;;;5070028;28;20237;-74
2022/01/10 03:41:55;;;;;;;0.10;0.10;;;3.20;99.90;230.40;228845.00;;;;5036440;28;20186;-73
2022/01/10 03:44:24;;;;;;;0.10;0.10;;;3.20;99.90;230.40;228845.00;;;;5040050;28;20630;-73
2022/01/10 03:46:52;;;;;;;0.10;0.10;;;3.10;99.90;230.40;228845.00;;;;5037484;28;20273;-74
2022/01/10 03:49:22;;;;;;;0.10;0.10;;;3.00;99.90;230.40;228845.00;;;;5040612;28;20224;-73
2022/01/10 03:51:50;;;;;;;0.10;0.10;;;3.00;99.90;230.40;228845.00;;;;5040905;28;20204;-74
2022/01/10 03:54:19;;;;;;;0.10;0.10;;;3.00;99.90;230.40;228845.00;;;;5041579;28;20559;-74
2022/01/10 03:56:49;;;;;;;0.10;0.10;;;2.90;99.90;230.40;228845.00;;;;5039367;28;20567;-73
2022/01/10 03:59:18;;;;;;;0.10;0.10;;;2.90;99.90;230.40;228845.00;;;;5037445;28;20218;-74
2022/01/10 04:01:46;;;;;;;0.10;0.10;;;3.00;99.90;230.40;228845.00;;;;5038045;28;20734;-73
2022/01/10 04:04:14;;;;;;;0.10;0.10;;;3.00;99.90;230.40;228845.00;;;;5055279;28;20194;-73
2022/01/10 04:06:42;;;;;;;0.10;0.10;;;3.00;99.90;230.40;228845.00;;;;5034326;28;20256;-73
2022/01/10 04:09:10;;;;;;;0.10;0.10;;;3.00;99.90;230.40;228845.00;;;;5053930;28;20230;-74
2022/01/10 04:11:38;;;;;;;0.10;0.10;;;3.00;99.90;230.40;228845.00;;;;5070055;28;20202;-73
2022/01/10 04:14:07;;;;;;;0.10;0.10;;;3.00;99.90;230.40;228845.00;;;;5035837;28;20555;-73
2022/01/10 04:16:36;;;;;;;0.10;0.10;;;2.90;99.90;230.40;228845.00;;;;5052779;28;20696;-74
2022/01/10 04:19:05;;;;;;;0.10;0.10;;;2.90;99.90;230.40;228845.00;;;;5053429;28;20210;-74
2022/01/10 04:21:34;;;;;;;0.10;0.10;;;2.90;99.90;230.40;228845.00;;;;5067943;28;20191;-74
2022/01/10 04:24:03;;;;;;;0.10;0.10;;;2.90;99.90;230.40;228845.00;;;;5034149;28;20610;-74
2022/01/10 04:26:31;;;;;;;0.10;0.10;;;2.90;99.90;230.40;228845.00;;;;5036428;28;20194;-74
2022/01/10 04:28:59;;;;;;;0.10;0.10;;;2.90;99.90;230.40;228845.00;;;;5036503;28;20220;-74
2022/01/10 04:31:27;;;;;;;0.10;0.10;;;3.00;99.90;230.40;228845.00;;;;5055279;28;20199;-74
2022/01/10 04:33:57;;;;;;;0.10;0.10;;;3.10;99.90;230.40;228845.00;;;;5033198;28;20629;-74
2022/01/10 04:36:25;;;;;;;0.10;0.10;;;3.10;99.90;230.40;228845.00;;;;5032001;28;20315;-74
2022/01/10 04:38:54;;;;;;;0.10;0.10;;;3.10;99.90;230.40;228845.00;;;;5032203;28;20210;-74
2022/01/10 04:41:22;;;;;;;0.10;0.10;;;3.00;99.90;230.40;228845.00;;;;5034204;28;20324;-74
2022/01/10 04:43:51;;;;;;;0.10;0.10;;;2.90;99.90;230.40;228845.00;;;;5067890;28;20256;-76
2022/01/10 04:46:19;;;;;;;0.10;0.10;;;2.80;99.90;230.40;228845.00;;;;5033192;28;20214;-74
2022/01/10 04:48:47;;;;;;;0.10;0.10;;;2.80;99.90;230.40;228845.00;;;;5032776;28;20299;-74
2022/01/10 04:51:17;;;;;;;0.10;0.10;;;2.80;99.90;230.40;228845.00;;;;5035956;28;20244;-75
2022/01/10 04:53:51;;;;;;;0.10;0.10;;;2.80;99.90;230.40;228845.00;;;;5033471;28;20206;-75
2022/01/10 04:56:21;;;;;;;0.10;0.10;;;2.80;99.90;230.40;228845.00;;;;5065568;28;20608;-74
2022/01/10 04:58:53;;;;;;;0.10;0.10;;;2.80;99.90;230.40;228845.00;;;;5032968;28;20216;-74
2022/01/10 05:01:23;;;;;;;0.10;0.10;;;2.90;99.90;230.40;228845.00;;;;5031249;28;20201;-75
2022/01/10 05:03:55;;;;;;;0.10;0.10;;;2.80;99.90;230.40;228845.00;;;;5033309;28;20195;-74
2022/01/10 05:06:25;;;;;;;0.10;0.10;;;2.80;99.90;230.40;228845.00;;;;5065334;28;20194;-74
2022/01/10 05:08:53;;;;;;;0.10;0.10;;;2.90;99.90;230.40;228845.00;;;;5032678;28;20262;-74
2022/01/10 05:11:38;;;;;;;0.10;0.10;;;2.80;99.90;230.40;228845.00;;;;5031219;28;20268;-74
2022/01/10 05:14:06;;;;;;;0.10;0.10;;;2.80;99.90;230.40;228845.00;;;;5032851;28;20373;-75
2022/01/10 05:16:34;;;;;;;0.10;0.10;;;2.80;99.90;230.40;228845.00;;;;5053039;28;20221;-74
2022/01/10 05:19:02;;;;;;;0.10;0.10;;;2.90;99.90;230.40;228845.00;;;;5051756;28;20297;-73
2022/01/10 05:21:32;;;;;;;0.10;0.10;;;2.80;99.90;230.40;228845.00;;;;5032608;28;20218;-74
2022/01/10 05:24:00;;;;;;;0.10;0.10;;;2.80;99.90;230.40;228845.00;;;;5035603;28;20265;-74
2022/01/10 05:26:29;;;;;;;0.10;0.10;;;2.80;99.90;230.40;228845.00;;;;5036123;28;20322;-74
2022/01/10 05:28:59;;;;;;;0.10;0.10;;;2.90;99.90;230.40;228845.00;;;;5036690;28;20207;-74
2022/01/10 05:31:28;;;;;;;0.10;0.10;;;2.70;99.90;230.40;228845.00;;;;5036599;28;20206;-74
2022/01/10 05:34:10;;;;;;;0.10;0.10;;;2.70;99.90;230.40;228845.00;;;;5033086;28;20202;-74
2022/01/10 05:36:39;;;;;;;0.10;0.10;;;2.70;99.90;230.40;228845.00;;;;5035871;28;20252;-75
2022/01/10 05:39:07;;;;;;;0.10;0.10;;;2.50;99.90;230.40;228845.00;;;;5039277;28;20218;-73
2022/01/10 05:41:36;;;;;;;0.10;0.10;;;2.40;99.90;230.40;228845.00;;;;5058026;28;20199;-74
2022/01/10 05:44:06;;;;;;;0.10;0.10;;;2.40;99.90;230.40;228845.00;;;;5039434;28;20191;-74
2022/01/10 05:46:40;;;;;;;0.10;0.10;;;2.40;99.90;230.40;228845.00;;;;5072423;28;20222;-74
2022/01/10 05:49:18;;;;;;;0.10;0.10;;;2.30;99.90;230.40;228845.00;;;;5069104;28;20221;-74
2022/01/10 05:51:48;;;;;;;0.10;0.10;;;2.20;99.90;230.40;228845.00;;;;5032726;28;20562;-73
2022/01/10 05:54:34;;;;;;;0.10;0.10;;;2.20;99.90;230.40;228845.00;;;;5032672;28;20217;-74
2022/01/10 05:57:05;;;;;;;0.10;0.10;;;2.20;99.90;230.40;228845.00;;;;5065125;28;20299;-75
2022/01/10 05:59:37;;;;;;;0.10;0.10;;;2.30;99.90;230.40;228845.00;;;;5032619;28;20210;-74
2022/01/10 06:02:06;;;;;;;0.10;0.10;;;2.20;99.90;230.40;228845.00;;;;5030830;28;20202;-74
2022/01/10 06:04:34;;;;;;;0.10;0.10;;;2.30;99.90;230.40;228845.00;;;;5032353;28;20190;-74
2022/01/10 06:07:25;;;;;;;0.10;0.10;;;2.40;99.90;230.40;228845.00;;;;5032516;28;20220;-74
2022/01/10 06:09:53;;;;;;;0.10;0.10;;;2.40;99.90;230.40;228845.00;;;;5032201;28;20309;-74
2022/01/10 06:12:21;;;;;;;0.10;0.10;;;2.40;99.90;230.40;228845.00;;;;5032702;28;20565;-74
2022/01/10 06:14:49;;;;;;;0.10;0.10;;;2.40;99.90;230.40;228845.00;;;;5064800;28;20214;-74
2022/01/10 06:17:17;;;;;;;0.10;0.10;;;2.40;99.90;230.40;228845.00;;;;5032693;28;20308;-74
2022/01/10 06:19:45;;;;;;;0.10;0.10;;;2.40;99.90;230.40;228845.00;;;;5033076;28;20218;-74
2022/01/10 06:22:14;;;;;;;0.10;0.10;;;2.50;99.90;230.40;228845.00;;;;5031683;28;20562;-74
2022/01/10 06:24:44;;;;;;;0.10;0.10;;;2.50;99.90;230.40;228845.00;;;;5031555;28;20661;-73
2022/01/10 06:27:12;;;;;;;0.10;0.10;;;2.50;99.90;230.40;228845.00;;;;5034197;28;20297;-74
2022/01/10 06:29:40;;;;;;;0.10;0.10;;;2.50;99.90;230.40;228845.00;;;;5033787;28;20218;-72
2022/01/10 06:32:09;;;;;;;0.10;0.10;;;2.50;99.90;230.40;228845.00;;;;5039916;28;20237;-73
2022/01/10 06:34:37;;;;;;;0.10;0.10;;;2.60;99.90;230.40;228845.00;;;;5041865;28;20194;-73
2022/01/10 06:37:06;;;;;;;0.10;0.10;;;2.60;99.90;230.40;228845.00;;;;5040824;28;20237;-74
2022/01/10 06:39:41;;;;;;;0.10;0.10;;;2.50;99.90;230.40;228845.00;;;;5041179;28;20217;-74
2022/01/10 06:42:11;;;;;;;0.10;0.10;;;2.40;99.90;230.40;228845.00;;;;5041195;28;21040;-73
2022/01/10 06:44:40;;;;;;;0.10;0.10;;;2.50;99.90;230.40;228845.00;;;;5039563;28;20190;-74
2022/01/10 06:47:12;;;;;;;0.10;0.10;;;2.50;99.90;230.40;228845.00;;;;5034555;28;20226;-74
2022/01/10 06:49:40;;;;;;;0.10;0.10;;;2.60;99.90;230.40;228845.00;;;;5057041;28;20214;-74
2022/01/10 06:52:09;;;;;;;0.10;0.10;;;2.60;99.90;230.40;228845.00;;;;5055920;28;20183;-74
2022/01/10 06:54:38;;;;;;;0.10;0.10;;;2.60;99.90;230.40;228845.00;;;;5037693;28;20558;-74
2022/01/10 06:57:07;;;;;;;0.10;0.10;;;2.60;99.90;230.40;228845.00;;;;5037626;28;20210;-74
2022/01/10 06:59:38;;;;;;;0.10;0.10;;;2.60;99.90;230.40;228845.00;;;;5037824;28;20278;-74
2022/01/10 07:02:06;;;;;;;0.10;0.10;;;2.60;99.90;230.40;228845.00;;;;5059167;28;20201;-74
2022/01/10 07:04:34;;;;;;;0.10;0.10;;;2.70;99.90;230.40;228845.00;;;;5041756;28;20199;-74
2022/01/10 07:07:06;;;;;;;0.10;0.10;;;2.80;99.90;230.40;228845.00;;;;5039518;28;20203;-74
2022/01/10 07:09:39;;;;;;;0.10;0.10;;;2.80;99.90;230.40;228845.00;;;;5044336;28;20230;-74
2022/01/10 07:12:12;;;;;;;0.10;0.10;;;2.90;99.90;230.40;228845.00;;;;5043366;28;20463;-74
2022/01/10 07:15:00;;;;;;;0.10;0.10;;;2.90;99.90;230.40;228845.00;;;;5045491;28;20221;-74
2022/01/10 07:17:29;;;;;;;0.10;0.10;;;2.90;99.90;230.40;228845.00;;;;5045803;28;20317;-74
2022/01/10 07:19:58;;;;;;;0.10;0.10;;;2.90;99.90;230.40;228845.00;;;;5043198;28;20218;-74
2022/01/10 07:22:31;;;;;;;0.10;0.10;;;2.80;99.90;230.40;228845.00;;;;5041424;28;20200;-74
2022/01/10 07:24:59;;;;;;;0.10;0.10;;;2.80;99.90;230.40;228845.00;;;;5075903;28;20282;-74
2022/01/10 07:27:27;;;;;;;0.10;0.10;;;2.80;99.90;230.40;228845.00;;;;5061682;28;20202;-74
2022/01/10 07:29:55;;;;;;;0.10;0.10;;;2.90;99.90;230.40;228845.00;;;;5061534;28;20626;-74
2022/01/10 07:32:29;;;;;;;0.10;0.10;;;2.90;99.90;230.40;228845.00;;;;5059671;28;20194;-74
2022/01/10 07:34:57;;;;;;;0.10;0.10;;;2.90;99.90;230.40;228845.00;;;;5060991;28;20245;-74
2022/01/10 07:37:25;;;;;;;0.10;0.10;;;2.90;99.90;230.40;228845.00;;;;5058816;28;20602;-74
2022/01/10 07:39:53;;;;;;;0.10;0.10;;;2.90;99.90;230.40;228845.00;;;;5040565;28;20218;-76
2022/01/10 07:42:21;;;;;;;0.10;0.10;;;2.90;99.90;230.40;228845.00;;;;5054759;28;20697;-74
2022/01/10 07:44:53;;;;;;;0.10;0.10;;;2.80;99.90;230.40;228845.00;;;;5037381;28;20233;-74
2022/01/10 07:47:22;;;;;;;0.10;0.10;;;2.70;99.90;230.40;228845.00;;;;5054077;28;20726;-74
2022/01/10 07:49:51;;;;;;;0.10;0.10;;;2.70;99.90;230.40;228845.00;;;;5056179;28;20275;-74
2022/01/10 07:52:19;;;;;;;0.10;0.10;;;2.60;99.90;230.40;228845.00;;;;5057445;28;20241;-73
2022/01/10 07:54:47;;;;;;;0.10;0.10;;;2.70;99.90;230.40;228845.00;;;;5057740;28;20649;-74
2022/01/10 07:57:15;;;;;;;0.10;0.10;;;2.70;99.90;230.40;228845.00;;;;5053090;28;20198;-74
2022/01/10 07:59:44;;;;;;;0.10;0.10;;;2.70;99.90;230.40;228845.00;;;;5054761;28;20280;-74
2022/01/10 08:02:13;;;;;;;0.10;0.10;;;2.70;99.90;230.40;228845.00;;;;5035648;28;20202;-73
2022/01/10 08:04:41;;;;;;;0.10;0.10;;;2.80;99.90;230.40;228845.00;;;;5038316;28;20198;-73
2022/01/10 08:07:11;;;;;;;0.10;0.10;;;2.90;99.90;230.40;228845.00;;;;5052857;28;20577;-72
2022/01/10 08:09:39;;;;;;;0.10;0.10;;;2.90;99.90;230.40;228845.00;;;;5051853;28;20226;-71
2022/01/10 08:12:09;;;;;;;0.10;0.10;;;2.90;99.90;230.40;228845.00;;;;5051837;28;20273;-71
2022/01/10 08:14:37;;;;;;;0.10;0.10;;;2.90;99.90;230.40;228845.00;;;;5051916;28;20224;-71
2022/01/10 08:17:06;;;;;;;0.10;0.10;;;2.80;99.90;230.40;228845.00;;;;5033303;28;20202;-71
2022/01/10 08:19:34;;;;;;;0.10;0.10;;;2.90;99.90;230.40;228845.00;;;;5054410;28;20218;-73
2022/01/10 08:22:03;;;;;;;0.10;0.10;;;3.10;99.90;230.40;228845.00;;;;5051238;28;20233;-73
2022/01/10 08:24:33;;;;;;;0.10;0.10;;;3.40;99.90;230.40;228845.00;;;;5051085;28;20202;-71
2022/01/10 08:27:01;;;;;;;0.10;0.10;;;3.40;99.90;230.40;228845.00;;;;5050931;28;20232;-73
2022/01/10 08:29:30;;;;;;;0.10;0.10;;;3.50;99.90;230.40;228845.00;;;;5048918;28;20222;-71
2022/01/10 08:31:58;;;;;;;0.10;0.10;;;3.50;99.90;230.40;228845.00;;;;5050961;28;20202;-71
2022/01/10 08:34:26;;;;;;;0.10;0.10;;;3.40;99.90;230.40;228845.00;;;;5050737;28;20202;-70
2022/01/10 08:36:56;;;;;;;0.10;0.10;;;3.40;99.90;230.40;228845.00;;;;5051407;28;20198;-73
2022/01/10 08:39:24;;;;;;;0.10;0.10;;;3.30;99.90;230.40;228845.00;;;;5051247;28;20268;-73
2022/01/10 08:41:53;;;;;;;0.10;0.10;;;3.20;99.90;230.40;228845.00;;;;5052011;28;20658;-73
2022/01/10 08:44:22;;;;;;;0.10;0.10;;;3.20;99.90;230.40;228845.00;;;;5049979;28;20233;-73
2022/01/10 08:46:50;;;;;;;0.10;0.10;;;3.20;99.90;230.40;228845.00;;;;5051110;28;20237;-73
2022/01/10 08:49:19;;;;;;;0.10;0.10;;;3.20;99.90;230.40;228845.00;;;;5050675;28;20240;-72
2022/01/10 08:51:54;;;;;;;0.10;0.10;;;3.20;99.90;230.40;228845.00;;;;5051101;28;20210;-73
2022/01/10 08:54:23;;;;;;;0.10;0.10;;;3.10;99.90;230.40;228845.00;;;;5050613;28;20244;-76
2022/01/10 08:56:54;;;;;;;0.10;0.10;;;3.10;99.90;230.40;228845.00;;;;5051422;28;20190;-73
2022/01/10 08:59:23;;;;;;;0.10;0.10;;;3.10;99.90;230.40;228845.00;;;;5050628;28;20644;-73
2022/01/10 09:01:51;;;;;;;0.10;0.10;;;3.20;99.90;230.40;228845.00;;;;5051572;28;20244;-72
2022/01/10 09:04:20;;;;;;;0.10;0.10;;;3.20;99.90;230.40;228845.00;;;;5051209;28;20624;-73
2022/01/10 09:06:50;;;;;;;0.10;0.10;;;3.20;99.90;230.40;228845.00;;;;5050948;28;20617;-73
2022/01/10 09:09:20;;;;;;;0.10;0.10;;;3.30;99.90;230.40;228845.00;;;;5049515;28;20246;-73
2022/01/10 09:11:49;;;;;;;0.10;0.10;;;3.40;99.90;230.40;228845.00;;;;5050763;28;20558;-73
2022/01/10 09:14:19;;;;;;;0.10;0.10;;;3.40;99.90;230.40;228845.00;;;;5033094;28;20259;-73
2022/01/10 09:16:47;;;;;;;0.10;0.10;;;3.40;99.90;230.40;228845.00;;;;5049143;28;20195;-73
2022/01/10 09:19:15;;;;;;;0.10;0.10;;;3.50;99.90;230.40;228845.00;;;;5050333;28;20262;-73
2022/01/10 09:21:44;;;;;;;0.10;0.10;;;3.50;99.90;230.40;228845.00;;;;5052533;28;20209;-73
2022/01/10 09:24:12;;;;;;;0.10;0.10;;;3.60;99.90;230.40;228845.00;;;;5051402;28;20260;-73
2022/01/10 09:26:40;;;;;;;0.10;0.10;;;3.60;99.90;230.40;228845.00;;;;5051056;28;20194;-74
2022/01/10 09:29:08;;;;;;;0.10;0.10;;;3.70;99.90;230.40;228845.00;;;;5050728;28;20234;-73
2022/01/10 09:31:37;;;;;;;0.10;0.10;;;3.80;99.90;230.40;228845.00;;;;5049345;28;20251;-74
2022/01/10 09:34:06;;;;;;;0.10;0.10;;;3.90;99.90;230.40;228845.00;;;;5049146;28;20209;-73
2022/01/10 09:36:34;;;;;;;0.10;0.10;;;4.00;99.90;230.40;228845.00;;;;5050326;28;20202;-73
2022/01/10 09:39:03;;;;;;;0.10;0.10;;;4.00;99.90;230.40;228845.00;;;;5049997;28;20836;-73
2022/01/10 09:41:32;;;;;;;0.08;0.08;;;4.00;99.90;230.40;228845.00;;;;5050504;28;20236;-73
2022/01/10 09:44:06;;;;;;;0.10;0.10;;;4.00;99.90;230.40;228845.00;;;;5050489;28;20692;-73
2022/01/10 09:46:36;;;;;;;0.10;0.10;;;4.10;99.90;230.40;228845.00;;;;5049938;28;20568;-73
2022/01/10 09:49:05;;;;;;;0.10;0.10;;;4.10;99.90;230.40;228845.00;;;;5049528;28;20226;-74
2022/01/10 09:51:34;;;;;;;0.10;0.10;;;4.10;99.90;230.40;228845.00;;;;5049967;28;20205;-73
2022/01/10 09:54:05;;;;;;;0.10;0.10;;;4.20;99.90;230.40;228845.00;;;;5049511;28;20190;-73
2022/01/10 09:56:37;;;;;;;0.10;0.10;;;4.20;99.90;230.40;228845.00;;;;5050036;28;20186;-73
2022/01/10 09:59:07;;;;;;;0.10;0.10;;;4.20;99.90;230.40;228845.00;;;;5049601;28;20228;-73
2022/01/10 10:01:36;;;;;;;0.10;0.10;;;4.30;99.90;230.40;228845.00;;;;5049548;28;20248;-73
2022/01/10 10:04:05;;;;;;;0.10;0.10;;;4.30;99.90;230.40;228845.00;;;;5049328;28;20723;-73
2022/01/10 10:06:34;;;;;;;0.10;0.10;;;4.40;99.90;230.40;228845.00;;;;5049253;28;20197;-74
2022/01/10 10:09:08;;;;;;;0.10;0.10;;;4.40;99.90;230.40;228845.00;;;;5049716;28;20218;-74
2022/01/10 10:11:39;;;;;;;0.10;0.10;;;4.40;99.90;230.40;228845.00;;;;5049081;28;20217;-73
2022/01/10 10:14:09;;;;;;;0.10;0.10;;;4.40;99.90;230.40;228845.00;;;;5049093;28;20199;-73
2022/01/10 10:16:47;;;;;;;0.10;0.10;;;4.40;99.90;230.40;228845.00;;;;5048621;28;20204;-74
2022/01/10 10:19:17;;;;;;;0.10;0.10;;;4.40;99.90;230.40;228845.00;;;;5041306;28;20240;-73
2022/01/10 10:21:45;;;;;;;0.10;0.10;;;4.50;99.90;230.40;228845.00;;;;5042617;28;20199;-73
2022/01/10 10:24:14;;;;;;;0.10;0.10;;;4.50;99.90;230.40;228845.00;;;;5049508;28;20209;-73
2022/01/10 10:26:42;;;;;;;0.10;0.10;;;4.50;99.90;230.40;228845.00;;;;5048538;28;20198;-73
2022/01/10 10:29:13;;;;;;;0.10;0.10;;;4.40;99.90;230.40;228845.00;;;;5048069;28;20260;-73
2022/01/10 10:31:48;;;;;;;0.10;0.10;;;4.40;99.90;230.40;228845.00;;;;5048719;28;20213;-73
2022/01/10 10:34:21;;;;;;;0.10;0.10;;;4.50;99.90;230.40;228845.00;;;;5045291;28;20202;-73
2022/01/10 10:37:02;;;;;;;0.10;0.10;;;4.50;99.90;230.40;228845.00;;;;5050310;28;20198;-73
2022/01/10 10:39:32;;;;;;;0.10;0.10;;;4.50;99.90;230.40;228845.00;;;;5049525;28;20346;-73
2022/01/10 10:42:08;;;;;;;0.10;0.10;;;4.50;99.90;230.40;228845.00;;;;5050865;28;20198;-73
2022/01/10 10:44:37;;;;;;;0.00;0.00;;;4.50;99.90;230.40;228845.00;;;;5053457;28;20198;-73
2022/01/10 10:47:06;;;;;;;0.10;0.10;;;4.60;99.90;230.40;228845.00;;;;5052220;28;20202;-73
2022/01/10 10:49:39;;;;;;;0.10;0.10;;;4.60;99.90;230.40;228845.00;;;;5051274;28;20218;-74
2022/01/10 10:52:11;;;;;;;0.10;0.10;;;4.60;99.90;230.40;228845.00;;;;5040352;28;20205;-73
2022/01/10 10:54:40;;;;;;;0.10;0.10;;;4.60;99.90;230.40;228845.00;;;;5055974;28;20199;-73
2022/01/10 10:57:11;;;;;;;0.10;0.10;;;4.60;99.90;230.40;228845.00;;;;5061972;28;20209;-73
2022/01/10 10:59:43;;;;;;;0.10;0.10;;;4.60;99.90;230.40;228845.00;;;;5063808;28;20260;-73
2022/01/10 11:02:14;;;;;;;0.10;0.10;;;4.60;99.90;230.40;228845.00;;;;5062215;28;20190;-73
2022/01/10 11:04:43;;;;;;;0.10;0.10;;;4.60;99.90;230.40;228845.00;;;;5063762;28;20194;-73
2022/01/10 11:07:12;;;;;;;0.10;0.10;;;4.60;99.90;230.40;228845.00;;;;5064478;28;20631;-73